Time;durP1;ratioP1;P1;durP2;ratioP2;P2;SDS_P1;SDS_P2;PMS_P1;PMS_P2;Temp;Humidity;BMP_temperature;BMP_pressure;BME280_temperature;BME280_humidity;BME280_pressure;Samples;Min_cycle;Max_cycle;Signal;HPM_P1;HPM_P2
2023/11/03 00:02:22;;;;;;;6.03;2.00;;;;;;;12.53;76.74;97529.81;5034680;28;20044;-43
2023/11/03 00:04:47;;;;;;;7.30;2.20;;;;;;;12.47;77.13;97535.34;5033949;28;20054;-44
2023/11/03 00:07:14;;;;;;;7.55;2.10;;;;;;;12.14;77.39;97540.34;5033850;28;20052;-44
2023/11/03 00:09:39;;;;;;;5.50;1.80;;;;;;;12.58;76.55;97533.91;5034859;28;20038;-41
2023/11/03 00:12:06;;;;;;;3.83;1.50;;;;;;;12.29;77.41;97538.81;5035423;28;20045;-47
2023/11/03 00:14:34;;;;;;;5.30;1.70;;;;;;;12.38;77.87;97554.88;5034594;28;20029;-44
2023/11/03 00:17:01;;;;;;;5.05;1.67;;;;;;;12.22;77.45;97542.63;5033557;28;20044;-46
2023/11/03 00:19:27;;;;;;;5.65;1.70;;;;;;;12.06;78.22;97547.72;5033072;28;20083;-48
2023/11/03 00:21:54;;;;;;;4.40;1.63;;;;;;;12.17;78.44;97545.44;5032184;28;20116;-43
2023/11/03 00:24:20;;;;;;;6.18;1.83;;;;;;;12.52;77.12;97556.88;5032513;28;20043;-44
2023/11/03 00:26:47;;;;;;;4.85;1.80;;;;;;;12.08;79.01;97561.53;5020280;28;20049;-43
2023/11/03 00:29:13;;;;;;;4.00;1.80;;;;;;;12.41;77.71;97569.59;5012552;28;20041;-45
2023/11/03 00:31:45;;;;;;;5.95;1.90;;;;;;;12.11;80.02;97564.88;5012496;28;20087;-44
2023/11/03 00:34:11;;;;;;;8.60;2.50;;;;;;;12.27;78.84;97574.59;5012380;28;21155;-45
2023/11/03 00:36:38;;;;;;;6.90;2.33;;;;;;;12.50;78.21;97579.63;5012496;28;20113;-43
2023/11/03 00:39:04;;;;;;;8.73;2.30;;;;;;;12.84;76.43;97577.09;5012363;28;20402;-43
2023/11/03 00:41:30;;;;;;;4.57;2.20;;;;;;;12.85;76.31;97588.41;5012856;28;20026;-43
2023/11/03 00:43:55;;;;;;;12.43;3.03;;;;;;;12.47;77.43;97584.97;5012294;28;20041;-42
2023/11/03 00:46:20;;;;;;;5.78;2.30;;;;;;;12.18;78.99;97579.34;5012422;28;20117;-42
2023/11/03 00:48:46;;;;;;;8.93;2.80;;;;;;;12.88;76.86;97596.94;5011695;28;20061;-43
2023/11/03 00:51:11;;;;;;;7.15;2.53;;;;;;;12.86;76.38;97601.41;5012847;28;20068;-42
2023/11/03 00:53:37;;;;;;;7.60;2.63;;;;;;;12.67;78.00;97602.34;5011970;28;20117;-44
2023/11/03 00:56:07;;;;;;;8.35;3.08;;;;;;;12.29;79.10;97604.09;5012775;28;20030;-42
2023/11/03 00:58:35;;;;;;;6.15;2.90;;;;;;;12.71;77.72;97609.13;5012776;28;20038;-45
2023/11/03 01:01:02;;;;;;;7.95;2.90;;;;;;;12.74;77.56;97617.69;5011908;28;20030;-45
2023/11/03 01:03:28;;;;;;;7.47;3.30;;;;;;;12.73;77.31;97618.59;5012219;28;20635;-42
2023/11/03 01:05:53;;;;;;;6.50;2.80;;;;;;;12.91;76.98;97615.09;5011643;28;20132;-43
2023/11/03 01:08:20;;;;;;;11.18;2.75;;;;;;;12.96;76.30;97630.56;5012207;28;20034;-44
2023/11/03 01:10:45;;;;;;;7.45;3.17;;;;;;;12.58;78.30;97634.97;5012147;28;20042;-43
2023/11/03 01:13:12;;;;;;;8.73;3.70;;;;;;;12.87;77.17;97634.44;5011620;28;20049;-44
2023/11/03 01:15:38;;;;;;;5.93;3.47;;;;;;;12.94;76.70;97641.09;5012195;28;20045;-43
2023/11/03 01:18:05;;;;;;;7.53;3.63;;;;;;;12.86;77.27;97645.00;5011549;28;20046;-46
2023/11/03 01:20:30;;;;;;;9.00;3.58;;;;;;;12.91;77.32;97648.25;5011861;28;20030;-45
2023/11/03 01:22:57;;;;;;;8.20;3.60;;;;;;;12.29;78.90;97640.69;5011376;28;20493;-43
2023/11/03 01:25:22;;;;;;;6.85;3.55;;;;;;;12.77;77.85;97637.56;5011631;28;20041;-44
2023/11/03 01:27:50;;;;;;;7.15;2.95;;;;;;;12.81;76.70;97628.66;5011565;28;20034;-46
2023/11/03 01:30:17;;;;;;;7.18;3.00;;;;;;;12.88;77.35;97643.16;5011360;28;20100;-44
2023/11/03 01:32:43;;;;;;;5.60;3.30;;;;;;;12.47;77.78;97629.38;5011790;28;20073;-46
2023/11/03 01:35:09;;;;;;;6.45;3.03;;;;;;;12.31;79.08;97654.53;5011009;28;20518;-47
2023/11/03 01:37:34;;;;;;;5.47;2.78;;;;;;;12.83;78.13;97648.59;5011406;28;20113;-49
2023/11/03 01:40:06;;;;;;;6.07;2.95;;;;;;;12.96;76.97;97651.47;5010939;28;20485;-46
2023/11/03 01:42:31;;;;;;;6.25;2.50;;;;;;;12.94;77.31;97653.31;5011553;28;20041;-47
2023/11/03 01:44:57;;;;;;;4.07;1.95;;;;;;;13.01;77.47;97649.50;5010654;28;20048;-44
2023/11/03 01:47:22;;;;;;;6.80;2.10;;;;;;;13.01;77.25;97647.72;5011623;28;20034;-47
2023/11/03 01:49:47;;;;;;;7.22;1.90;;;;;;;13.11;77.21;97647.31;5011769;28;20041;-45
2023/11/03 01:52:15;;;;;;;9.32;1.73;;;;;;;13.00;77.61;97658.25;5010828;28;20121;-45
2023/11/03 01:54:41;;;;;;;6.47;1.88;;;;;;;12.96;77.10;97654.94;5011077;28;20038;-43
2023/11/03 01:57:07;;;;;;;10.07;1.80;;;;;;;12.70;78.08;97659.69;5010589;28;20133;-46
2023/11/03 01:59:32;;;;;;;7.93;1.33;;;;;;;13.08;78.10;97655.28;5010971;28;20742;-43
2023/11/03 02:01:59;;;;;;;9.43;1.85;;;;;;;13.14;77.88;97648.03;5010323;28;20460;-45
2023/11/03 02:04:24;;;;;;;7.65;1.45;;;;;;;12.92;78.13;97665.63;5011074;28;20034;-43
2023/11/03 02:06:50;;;;;;;5.82;1.33;;;;;;;12.98;78.49;97678.41;5010913;28;20120;-43
2023/11/03 02:09:16;;;;;;;7.07;1.73;;;;;;;13.04;78.99;97672.91;5010605;28;20399;-45
2023/11/03 02:11:48;;;;;;;8.60;1.30;;;;;;;13.04;79.03;97670.28;5011129;28;20512;-48
2023/11/03 02:14:16;;;;;;;7.55;1.70;;;;;;;13.17;77.56;97660.97;5010327;28;20026;-46
2023/11/03 02:16:41;;;;;;;5.90;1.52;;;;;;;13.40;77.11;97670.31;5010657;28;20061;-47
2023/11/03 02:19:10;;;;;;;7.50;1.50;;;;;;;13.13;78.50;97669.84;5010215;28;20068;-43
2023/11/03 02:21:41;;;;;;;7.45;1.38;;;;;;;13.39;77.19;97666.84;5010828;28;20121;-49
2023/11/03 02:24:08;;;;;;;9.48;1.30;;;;;;;13.37;77.61;97671.28;5010489;28;20156;-44
2023/11/03 02:26:34;;;;;;;7.00;1.35;;;;;;;13.63;76.40;97670.00;5010461;28;20510;-46
2023/11/03 02:28:59;;;;;;;8.02;1.30;;;;;;;13.54;77.06;97680.09;5010272;28;20033;-48
2023/11/03 02:31:25;;;;;;;10.73;1.10;;;;;;;13.31;78.07;97674.22;5010661;28;20554;-47
2023/11/03 02:33:50;;;;;;;6.35;1.10;;;;;;;13.25;78.39;97679.72;5009488;28;20064;-47
2023/11/03 02:36:18;;;;;;;5.15;1.10;;;;;;;13.48;77.86;97675.19;5010518;28;20044;-44
2023/11/03 02:38:43;;;;;;;9.10;1.20;;;;;;;13.58;77.17;97685.09;5010863;28;20408;-45
2023/11/03 02:41:09;;;;;;;10.95;1.60;;;;;;;13.41;78.05;97692.94;5010518;28;20034;-43
2023/11/03 02:43:34;;;;;;;11.98;1.60;;;;;;;13.35;78.52;97690.63;5010448;28;20050;-43
2023/11/03 02:45:59;;;;;;;7.00;1.25;;;;;;;13.63;77.51;97698.81;5010132;28;20073;-46
2023/11/03 02:48:25;;;;;;;11.82;1.70;;;;;;;13.58;77.89;97700.81;5010570;28;20435;-45
2023/11/03 02:50:50;;;;;;;5.75;1.40;;;;;;;13.45;78.95;97699.72;5010720;28;20060;-45
2023/11/03 02:53:15;;;;;;;9.73;1.60;;;;;;;13.53;78.00;97699.34;5010501;28;20036;-43
2023/11/03 02:55:41;;;;;;;12.68;1.60;;;;;;;13.19;78.76;97718.41;5010852;28;20408;-41
2023/11/03 02:58:07;;;;;;;13.93;1.65;;;;;;;13.04;79.60;97719.13;5010009;28;20084;-45
2023/11/03 03:00:33;;;;;;;11.02;1.88;;;;;;;13.26;79.52;97712.81;5010953;28;20113;-44
2023/11/03 03:02:59;;;;;;;9.32;1.42;;;;;;;13.20;78.82;97710.50;5010265;28;20097;-44
2023/11/03 03:05:24;;;;;;;7.93;1.40;;;;;;;13.62;77.25;97725.06;5011092;28;20473;-44
2023/11/03 03:07:50;;;;;;;12.48;1.27;;;;;;;12.89;79.28;97718.03;5010396;28;20034;-47
2023/11/03 03:10:15;;;;;;;10.25;1.40;;;;;;;13.09;79.20;97727.59;5010187;28;20053;-44
2023/11/03 03:12:41;;;;;;;14.23;1.20;;;;;;;13.31;77.63;97741.38;5011537;28;20122;-44
2023/11/03 03:15:10;;;;;;;10.63;1.27;;;;;;;13.34;77.66;97741.25;5009383;28;20412;-44
2023/11/03 03:17:35;;;;;;;9.30;1.10;;;;;;;13.43;76.72;97732.09;5010262;28;20531;-44
2023/11/03 03:20:01;;;;;;;7.47;1.05;;;;;;;13.49;76.91;97739.66;5009448;28;20034;-44
2023/11/03 03:22:26;;;;;;;6.57;0.90;;;;;;;13.22;76.90;97733.97;5009957;28;20038;-45
2023/11/03 03:24:51;;;;;;;6.95;0.88;;;;;;;13.38;77.36;97725.31;5009827;28;20046;-43
2023/11/03 03:27:17;;;;;;;7.25;1.10;;;;;;;13.28;77.04;97729.31;5009790;28;20524;-41
2023/11/03 03:29:42;;;;;;;5.60;1.15;;;;;;;13.42;77.44;97739.09;5010884;28;20050;-43
2023/11/03 03:32:08;;;;;;;5.10;1.10;;;;;;;13.60;76.46;97743.44;5010913;28;20045;-43
2023/11/03 03:34:33;;;;;;;6.03;1.10;;;;;;;13.70;76.50;97733.38;5010301;28;20033;-44
2023/11/03 03:36:59;;;;;;;7.28;1.15;;;;;;;13.49;77.33;97747.50;5009347;28;20042;-46
2023/11/03 03:39:24;;;;;;;8.25;1.50;;;;;;;13.76;76.27;97741.78;5009661;28;20513;-43
2023/11/03 03:41:51;;;;;;;9.80;1.40;;;;;;;13.82;75.99;97746.72;5008556;28;20057;-45
2023/11/03 03:44:17;;;;;;;6.78;1.17;;;;;;;13.86;75.90;97743.94;5009533;28;20026;-43
2023/11/03 03:46:42;;;;;;;8.82;1.58;;;;;;;13.62;77.01;97757.31;5008968;28;20511;-43
2023/11/03 03:49:07;;;;;;;7.00;1.50;;;;;;;13.42;77.98;97757.41;5009813;28;20129;-46
2023/11/03 03:51:33;;;;;;;7.68;1.70;;;;;;;13.55;78.12;97776.84;5009970;28;20463;-45
2023/11/03 03:53:58;;;;;;;12.38;2.10;;;;;;;13.68;77.98;97774.50;5009309;28;20022;-44
2023/11/03 03:56:25;;;;;;;8.75;1.30;;;;;;;13.95;77.44;97769.69;5009251;28;20029;-44
2023/11/03 03:58:52;;;;;;;11.27;1.83;;;;;;;14.09;76.52;97780.31;5007621;28;20048;-44
2023/11/03 04:01:17;;;;;;;13.38;2.33;;;;;;;13.90;77.90;97793.50;5009817;28;20036;-42
2023/11/03 04:03:43;;;;;;;12.98;2.38;;;;;;;14.09;77.98;97790.78;5009547;28;20038;-47
2023/11/03 04:06:11;;;;;;;13.70;2.05;;;;;;;14.04;78.19;97795.41;5008908;28;20483;-43
2023/11/03 04:08:37;;;;;;;14.20;2.25;;;;;;;13.58;79.52;97807.28;5008291;28;20034;-47
2023/11/03 04:11:03;;;;;;;15.38;2.40;;;;;;;13.19;80.91;97809.97;5009075;28;20534;-46
2023/11/03 04:13:28;;;;;;;17.02;2.45;;;;;;;13.28;81.68;97820.88;5009654;28;20048;-48
2023/11/03 04:15:54;;;;;;;16.35;2.30;;;;;;;13.54;80.14;97824.88;5009050;28;20647;-48
2023/11/03 04:18:19;;;;;;;13.68;2.40;;;;;;;14.10;78.25;97805.59;5009338;28;20029;-44
2023/11/03 04:20:44;;;;;;;18.45;2.40;;;;;;;13.98;78.49;97821.91;5009203;28;20120;-44
2023/11/03 04:23:12;;;;;;;13.38;1.90;;;;;;;14.15;77.56;97819.28;5010167;28;20500;-43
2023/11/03 04:25:38;;;;;;;12.02;1.75;;;;;;;14.01;78.19;97825.25;5012865;28;20042;-42
2023/11/03 04:28:09;;;;;;;15.02;2.42;;;;;;;14.27;76.89;97812.63;5012447;28;20041;-48
2023/11/03 04:30:34;;;;;;;14.43;2.28;;;;;;;13.96;78.65;97818.53;5013108;28;20080;-47
2023/11/03 04:33:01;;;;;;;17.40;2.10;;;;;;;13.69;79.42;97832.03;5012696;28;20034;-45
2023/11/03 04:35:26;;;;;;;13.80;2.03;;;;;;;13.85;79.12;97834.75;5012884;28;20034;-45
2023/11/03 04:37:51;;;;;;;15.27;2.13;;;;;;;13.84;79.44;97829.59;5011773;28;20048;-50
2023/11/03 04:40:21;;;;;;;13.98;2.30;;;;;;;13.90;79.07;97845.88;5012480;28;20060;-46
2023/11/03 04:42:46;;;;;;;9.43;2.05;;;;;;;14.07;78.26;97845.03;5012652;28;20092;-48
2023/11/03 04:45:12;;;;;;;18.13;2.42;;;;;;;13.98;78.25;97848.94;5012098;28;20483;-48
2023/11/03 04:47:37;;;;;;;18.05;2.60;;;;;;;13.84;78.48;97848.78;5012791;28;20275;-45
2023/11/03 04:50:03;;;;;;;18.63;2.33;;;;;;;14.13;77.64;97853.44;5010677;28;20125;-45
2023/11/03 04:52:28;;;;;;;20.90;2.33;;;;;;;13.95;78.24;97856.97;5012288;28;20042;-45
2023/11/03 04:54:54;;;;;;;17.02;2.83;;;;;;;14.09;78.23;97870.22;5011842;28;20034;-43
2023/11/03 04:57:21;;;;;;;19.05;2.50;;;;;;;14.11;77.39;97867.53;5012198;28;20100;-45
2023/11/03 04:59:47;;;;;;;18.27;2.30;;;;;;;13.71;79.47;97861.59;5012408;28;20041;-44
2023/11/03 05:02:12;;;;;;;14.82;2.63;;;;;;;14.07;77.89;97868.63;5012184;28;20034;-43
2023/11/03 05:04:37;;;;;;;15.10;2.15;;;;;;;14.01;78.34;97872.38;5012782;28;20030;-44
2023/11/03 05:07:04;;;;;;;15.75;2.17;;;;;;;13.73;78.03;97864.13;5011787;28;20034;-44
2023/11/03 05:09:29;;;;;;;17.98;2.28;;;;;;;13.86;78.44;97865.25;5012305;28;20038;-48
2023/11/03 05:11:55;;;;;;;21.08;2.40;;;;;;;14.20;77.50;97870.56;5012061;28;20029;-44
2023/11/03 05:14:21;;;;;;;15.63;2.65;;;;;;;13.90;78.49;97879.91;5012040;28;20401;-44
2023/11/03 05:16:46;;;;;;;28.92;2.60;;;;;;;13.74;79.03;97886.78;5010621;28;20042;-45
2023/11/03 05:19:11;;;;;;;21.05;2.53;;;;;;;13.81;78.42;97899.50;5011476;28;20088;-46
2023/11/03 05:21:37;;;;;;;20.30;2.58;;;;;;;14.14;77.58;97891.84;5011933;28;20030;-44
2023/11/03 05:24:02;;;;;;;18.85;2.40;;;;;;;14.12;77.47;97890.19;5011258;28;20524;-46
2023/11/03 05:26:27;;;;;;;17.52;2.40;;;;;;;14.25;77.19;97900.94;5011697;28;20071;-45
2023/11/03 05:28:55;;;;;;;12.32;2.28;;;;;;;14.24;76.65;97897.47;5011182;28;20044;-44
2023/11/03 05:31:20;;;;;;;14.63;2.13;;;;;;;13.90;78.22;97915.72;5012026;28;20033;-46
2023/11/03 05:33:46;;;;;;;24.00;2.50;;;;;;;13.86;78.59;97912.38;5011361;28;20034;-45
2023/11/03 05:36:11;;;;;;;15.90;2.30;;;;;;;13.82;78.82;97911.69;5009671;28;20041;-42
2023/11/03 05:38:38;;;;;;;14.50;2.75;;;;;;;13.81;78.65;97919.59;5011741;28;20032;-42
2023/11/03 05:41:03;;;;;;;26.15;2.60;;;;;;;13.72;78.43;97925.28;5011881;28;20550;-43
2023/11/03 05:43:30;;;;;;;19.15;3.47;;;;;;;13.38;80.21;97928.56;5011767;28;20034;-44
2023/11/03 05:45:56;;;;;;;22.58;3.00;;;;;;;13.87;78.46;97926.31;5011408;28;20519;-44
2023/11/03 05:48:21;;;;;;;22.05;2.50;;;;;;;13.75;78.29;97936.47;5011520;28;20034;-45
2023/11/03 05:50:46;;;;;;;21.52;2.88;;;;;;;13.82;78.44;97944.88;5011602;28;20120;-43
2023/11/03 05:53:11;;;;;;;19.95;2.58;;;;;;;13.80;78.28;97946.72;5009724;28;20058;-44
2023/11/03 05:55:37;;;;;;;17.33;2.75;;;;;;;14.19;76.76;97959.72;5011618;28;20053;-43
2023/11/03 05:58:03;;;;;;;18.90;2.70;;;;;;;14.10;76.48;97952.28;5011172;28;20041;-43
2023/11/03 06:00:30;;;;;;;18.05;2.28;;;;;;;14.06;75.99;97962.06;5011874;28;20034;-45
2023/11/03 06:02:55;;;;;;;15.93;2.42;;;;;;;14.10;76.41;97971.47;5011592;28;20061;-43
2023/11/03 06:05:21;;;;;;;17.65;2.47;;;;;;;13.99;76.40;97970.28;5011364;28;20068;-44
2023/11/03 06:07:48;;;;;;;17.90;2.42;;;;;;;13.78;76.03;97986.06;5011115;28;20038;-45
2023/11/03 06:10:13;;;;;;;20.58;2.47;;;;;;;13.87;75.81;97989.19;5011128;28;20034;-43
2023/11/03 06:12:39;;;;;;;9.55;1.90;;;;;;;13.65;76.64;97999.78;5012085;28;20160;-43
2023/11/03 06:15:05;;;;;;;15.77;2.20;;;;;;;13.48;77.12;98008.34;5011528;28;20069;-43
2023/11/03 06:17:31;;;;;;;15.98;1.92;;;;;;;13.61;76.18;98014.75;5011717;28;20562;-43
2023/11/03 06:19:56;;;;;;;11.07;1.98;;;;;;;13.53;75.79;98029.97;5010835;28;20034;-45
2023/11/03 06:22:22;;;;;;;11.43;2.00;;;;;;;13.54;75.63;98038.69;5010585;28;20690;-45
2023/11/03 06:24:47;;;;;;;7.22;1.70;;;;;;;13.48;76.00;98031.91;5011026;28;20425;-43
2023/11/03 06:27:13;;;;;;;10.52;2.42;;;;;;;13.39;76.53;98029.72;5009937;28;20037;-48
2023/11/03 06:29:39;;;;;;;10.20;2.10;;;;;;;13.43;75.85;98041.72;5011099;28;20140;-48
2023/11/03 06:32:05;;;;;;;6.88;2.30;;;;;;;13.28;76.83;98040.66;5010119;28;20041;-43
2023/11/03 06:34:30;;;;;;;9.73;2.47;;;;;;;13.42;76.61;98037.41;5010606;28;20105;-44
2023/11/03 06:36:56;;;;;;;10.25;2.55;;;;;;;12.99;77.12;98049.66;5010173;28;20038;-43
2023/11/03 06:39:23;;;;;;;11.70;2.40;;;;;;;13.10;78.06;98061.47;5010509;28;20036;-46
2023/11/03 06:41:48;;;;;;;14.15;2.92;;;;;;;13.10;78.13;98069.31;5010847;28;20125;-43
2023/11/03 06:44:14;;;;;;;12.13;2.33;;;;;;;13.54;76.44;98073.53;5010280;28;20457;-45
2023/11/03 06:46:39;;;;;;;8.15;2.25;;;;;;;13.60;76.00;98086.34;5009892;28;20038;-44
2023/11/03 06:49:06;;;;;;;11.52;2.40;;;;;;;13.66;75.51;98091.31;5010113;28;20040;-44
2023/11/03 06:51:31;;;;;;;10.88;2.80;;;;;;;13.32;76.41;98083.22;5010297;28;20057;-43
2023/11/03 06:53:57;;;;;;;12.35;2.63;;;;;;;13.28;76.81;98089.50;5009796;28;20061;-43
2023/11/03 06:56:22;;;;;;;11.75;2.78;;;;;;;13.01;77.92;98091.44;5010050;28;20061;-44
2023/11/03 06:58:47;;;;;;;14.43;2.60;;;;;;;13.26;77.46;98107.88;5010346;28;20038;-46
2023/11/03 07:01:12;;;;;;;11.70;2.83;;;;;;;13.40;76.77;98113.38;5009597;28;20112;-45
2023/11/03 07:03:38;;;;;;;15.50;2.70;;;;;;;13.30;77.24;98119.03;5010036;28;20116;-45
2023/11/03 07:06:05;;;;;;;12.57;2.75;;;;;;;13.54;75.96;98127.66;5009767;28;20084;-44
2023/11/03 07:08:31;;;;;;;13.10;2.65;;;;;;;13.38;76.75;98130.06;5009864;28;20559;-46
2023/11/03 07:10:58;;;;;;;12.50;2.60;;;;;;;13.23;77.70;98135.94;5009833;28;20045;-43
2023/11/03 07:13:25;;;;;;;7.30;2.10;;;;;;;12.89;78.56;98121.56;5010138;28;20676;-44
2023/11/03 07:15:50;;;;;;;9.98;1.92;;;;;;;13.17;77.67;98131.81;5009661;28;20070;-44
2023/11/03 07:18:16;;;;;;;9.88;2.13;;;;;;;13.38;76.62;98123.06;5009150;28;20035;-42
2023/11/03 07:20:42;;;;;;;9.75;2.20;;;;;;;13.45;76.01;98123.66;5009784;28;20123;-42
2023/11/03 07:23:07;;;;;;;9.60;2.33;;;;;;;13.29;76.76;98135.69;5009531;28;20046;-43
2023/11/03 07:25:33;;;;;;;14.43;3.25;;;;;;;13.27;77.07;98124.44;5009625;28;20034;-46
2023/11/03 07:27:58;;;;;;;10.93;2.50;;;;;;;13.59;76.03;98129.19;5009509;28;20659;-43
2023/11/03 07:30:24;;;;;;;18.90;3.05;;;;;;;13.25;77.09;98148.03;5009906;28;20033;-44
2023/11/03 07:32:49;;;;;;;11.35;2.28;;;;;;;13.63;75.93;98148.22;5009886;28;20034;-45
2023/11/03 07:35:14;;;;;;;18.58;2.42;;;;;;;13.65;75.66;98142.00;5007727;28;20038;-43
2023/11/03 07:37:41;;;;;;;12.02;2.35;;;;;;;13.42;76.38;98139.47;5009972;28;20065;-46
2023/11/03 07:40:07;;;;;;;13.52;2.30;;;;;;;13.62;75.86;98141.25;5009231;28;20052;-44
2023/11/03 07:42:32;;;;;;;13.10;2.20;;;;;;;13.64;75.93;98147.28;5010073;28;20387;-47
2023/11/03 07:44:58;;;;;;;15.77;2.20;;;;;;;13.65;76.30;98149.00;5009050;28;20523;-47
2023/11/03 07:47:23;;;;;;;16.52;2.17;;;;;;;13.68;75.68;98157.56;5009650;28;20030;-45
2023/11/03 07:49:49;;;;;;;11.50;2.20;;;;;;;13.70;76.44;98152.28;5009340;28;20044;-43
2023/11/03 07:52:15;;;;;;;15.18;1.92;;;;;;;13.40;77.62;98165.72;5009068;28;20030;-45
2023/11/03 07:54:41;;;;;;;16.88;2.30;;;;;;;13.42;76.93;98170.88;5009773;28;20040;-48
2023/11/03 07:57:06;;;;;;;16.33;2.33;;;;;;;13.63;76.73;98172.63;5009742;28;20053;-45
2023/11/03 07:59:32;;;;;;;16.25;2.20;;;;;;;13.85;76.14;98174.31;5013343;28;20034;-45
2023/11/03 08:01:57;;;;;;;21.10;1.98;;;;;;;13.69;76.21;98171.50;5012592;28;20041;-47
2023/11/03 08:04:23;;;;;;;14.90;2.10;;;;;;;13.65;76.83;98169.94;5013026;28;20117;-43
2023/11/03 08:06:49;;;;;;;17.10;2.00;;;;;;;13.63;76.48;98175.25;5013218;28;20038;-45
2023/11/03 08:09:14;;;;;;;17.70;2.28;;;;;;;13.35;77.75;98177.31;5011408;28;20121;-45
2023/11/03 08:11:40;;;;;;;14.70;2.10;;;;;;;13.82;76.33;98181.41;5013431;28;20116;-46
2023/11/03 08:14:05;;;;;;;15.25;2.00;;;;;;;13.94;76.73;98185.28;5012696;28;20026;-44
2023/11/03 08:16:31;;;;;;;12.05;2.20;;;;;;;13.84;77.28;98191.81;5013344;28;20516;-44
2023/11/03 08:18:58;;;;;;;15.90;2.28;;;;;;;13.84;76.85;98194.44;5012843;28;20468;-43
2023/11/03 08:21:24;;;;;;;18.92;2.15;;;;;;;14.17;75.79;98200.84;5013192;28;20563;-43
2023/11/03 08:23:49;;;;;;;16.15;2.20;;;;;;;14.24;75.44;98196.19;5012927;28;20041;-43
2023/11/03 08:26:17;;;;;;;15.68;2.10;;;;;;;14.61;74.35;98201.53;5012690;28;20084;-44
2023/11/03 08:28:46;;;;;;;10.82;1.60;;;;;;;14.55;73.67;98207.03;5014052;28;20042;-43
2023/11/03 08:31:14;;;;;;;17.70;2.13;;;;;;;14.41;73.85;98222.53;5013566;28;20117;-43
2023/11/03 08:33:40;;;;;;;13.55;1.92;;;;;;;14.37;73.26;98217.47;5014269;28;20045;-44
2023/11/03 08:36:05;;;;;;;11.38;2.05;;;;;;;14.37;73.49;98223.59;5012842;28;20034;-47
2023/11/03 08:38:31;;;;;;;11.73;2.10;;;;;;;14.48;72.62;98225.72;5012956;28;20481;-47
2023/11/03 08:40:57;;;;;;;13.75;2.40;;;;;;;14.13;73.75;98243.81;5012669;28;20065;-44
2023/11/03 08:43:22;;;;;;;14.02;2.00;;;;;;;14.14;73.32;98232.44;5012800;28;20041;-42
2023/11/03 08:45:49;;;;;;;13.02;2.20;;;;;;;13.95;73.47;98231.50;5012543;28;20034;-47
2023/11/03 08:48:16;;;;;;;12.50;1.90;;;;;;;13.87;74.23;98232.72;5012455;28;20054;-48
2023/11/03 08:50:41;;;;;;;15.18;1.92;;;;;;;14.02;73.97;98240.81;5012970;28;20611;-45
2023/11/03 08:53:07;;;;;;;13.45;2.13;;;;;;;13.73;75.18;98238.53;5012364;28;20034;-44
2023/11/03 08:55:33;;;;;;;15.05;2.00;;;;;;;13.69;75.30;98243.06;5012520;28;20060;-46
2023/11/03 08:57:58;;;;;;;11.77;2.15;;;;;;;13.70;75.56;98257.00;5012031;28;20061;-44
2023/11/03 09:00:24;;;;;;;17.88;2.08;;;;;;;13.91;74.71;98250.00;5011412;28;20117;-44
2023/11/03 09:02:50;;;;;;;13.40;2.20;;;;;;;13.87;74.51;98265.00;5013082;28;20038;-47
2023/11/03 09:05:16;;;;;;;16.85;2.25;;;;;;;14.10;74.08;98259.66;5012693;28;20034;-46
2023/11/03 09:07:42;;;;;;;14.23;1.98;;;;;;;13.71;75.34;98269.19;5013265;28;20436;-47
2023/11/03 09:10:10;;;;;;;13.60;2.30;;;;;;;14.06;73.87;98271.19;5012401;28;20072;-47
2023/11/03 09:12:37;;;;;;;15.55;2.42;;;;;;;13.95;74.69;98269.94;5013707;28;20041;-47
2023/11/03 09:15:04;;;;;;;16.33;2.20;;;;;;;13.57;75.61;98290.69;5013486;28;20030;-46
2023/11/03 09:17:32;;;;;;;9.10;1.83;;;;;;;14.24;74.74;98282.66;5013774;28;20029;-45
2023/11/03 09:19:58;;;;;;;13.40;1.90;;;;;;;14.29;74.43;98282.47;5012754;28;20476;-46
2023/11/03 09:22:27;;;;;;;12.98;2.17;;;;;;;14.05;74.21;98284.34;5014584;28;20332;-49
2023/11/03 09:24:54;;;;;;;9.50;1.70;;;;;;;14.27;73.08;98293.03;5011796;28;20038;-43
2023/11/03 09:27:20;;;;;;;9.45;1.60;;;;;;;14.52;72.79;98298.06;5009245;28;20034;-44
2023/11/03 09:29:46;;;;;;;11.90;2.10;;;;;;;14.57;72.41;98293.50;5011463;28;20559;-48
2023/11/03 09:32:12;;;;;;;12.98;2.35;;;;;;;14.35;72.47;98297.91;5011113;28;20042;-42
2023/11/03 09:34:37;;;;;;;11.65;2.03;;;;;;;14.45;72.72;98296.66;5011600;28;20029;-45
2023/11/03 09:37:03;;;;;;;12.27;2.20;;;;;;;14.54;71.79;98307.59;5010929;28;20037;-45
2023/11/03 09:39:30;;;;;;;12.05;1.95;;;;;;;14.24;73.00;98314.09;5011138;28;20060;-48
2023/11/03 09:42:02;;;;;;;16.63;2.10;;;;;;;14.32;72.01;98316.41;5011459;28;20038;-46
2023/11/03 09:44:30;;;;;;;11.68;1.88;;;;;;;14.22;72.63;98316.78;5011074;28;20129;-46
2023/11/03 09:46:59;;;;;;;14.38;2.20;;;;;;;14.09;73.14;98312.97;5011510;28;20096;-47
2023/11/03 09:49:25;;;;;;;11.13;2.05;;;;;;;14.04;73.17;98314.06;5010823;28;20396;-44
2023/11/03 09:51:50;;;;;;;13.55;1.95;;;;;;;14.24;72.66;98324.59;5011246;28;20062;-45
2023/11/03 09:54:16;;;;;;;13.60;1.77;;;;;;;14.22;72.86;98329.88;5011151;28;20026;-47
2023/11/03 09:56:43;;;;;;;14.80;2.20;;;;;;;14.01;73.42;98319.47;5010999;28;20030;-44
2023/11/03 09:59:09;;;;;;;12.38;1.80;;;;;;;14.17;73.20;98318.75;5007875;28;20104;-46
2023/11/03 10:01:37;;;;;;;15.32;2.38;;;;;;;14.25;72.95;98328.91;5011353;28;20034;-49
2023/11/03 10:04:03;;;;;;;14.50;2.47;;;;;;;14.31;72.98;98315.56;5009165;28;20042;-45
2023/11/03 10:06:28;;;;;;;12.82;2.35;;;;;;;14.15;73.77;98320.56;5010969;28;20041;-47
2023/11/03 10:08:58;;;;;;;14.27;2.08;;;;;;;14.12;73.32;98319.84;5011229;28;20049;-44
2023/11/03 10:11:23;;;;;;;13.93;2.33;;;;;;;13.95;73.23;98322.31;5010512;28;20061;-43
2023/11/03 10:13:48;;;;;;;16.08;2.17;;;;;;;13.95;73.63;98328.41;5010956;28;20358;-46
2023/11/03 10:16:14;;;;;;;10.80;1.95;;;;;;;14.10;73.30;98329.53;5010342;28;20452;-44
2023/11/03 10:18:39;;;;;;;12.73;2.15;;;;;;;14.11;73.71;98324.25;5011034;28;20062;-44
2023/11/03 10:21:08;;;;;;;16.70;2.70;;;;;;;14.26;73.08;98324.53;5009435;28;20439;-46
2023/11/03 10:23:37;;;;;;;12.07;2.20;;;;;;;14.07;73.75;98327.06;5010390;28;20034;-48
2023/11/03 10:26:03;;;;;;;13.75;2.17;;;;;;;14.11;74.21;98326.88;5009881;28;20049;-46
2023/11/03 10:28:31;;;;;;;12.73;2.20;;;;;;;14.12;73.83;98332.97;5010470;28;20749;-46
2023/11/03 10:30:57;;;;;;;15.48;2.10;;;;;;;13.97;74.16;98320.47;5010970;28;20033;-44
2023/11/03 10:33:24;;;;;;;14.00;1.73;;;;;;;14.03;74.10;98322.84;5010292;28;20044;-42
2023/11/03 10:35:51;;;;;;;15.48;2.60;;;;;;;14.06;74.16;98327.97;5010651;28;20084;-46
2023/11/03 10:38:18;;;;;;;10.90;2.20;;;;;;;14.10;73.89;98324.31;5009978;28;20061;-44
2023/11/03 10:40:45;;;;;;;11.52;2.30;;;;;;;14.29;73.71;98319.16;5008968;28;20117;-46
2023/11/03 10:43:13;;;;;;;12.15;2.05;;;;;;;14.72;72.13;98336.53;5009859;28;20129;-44
2023/11/03 10:45:43;;;;;;;15.55;2.65;;;;;;;14.48;71.45;98334.06;5009000;28;20487;-42
2023/11/03 10:48:23;;;;;;;14.15;2.22;;;;;;;14.22;72.79;98336.88;5010252;28;20033;-45
2023/11/03 10:51:07;;;;;;;12.63;2.00;;;;;;;14.29;71.73;98342.72;5010666;28;20042;-45
2023/11/03 10:53:48;;;;;;;13.98;1.80;;;;;;;14.52;71.64;98342.63;5010058;28;20084;-45
2023/11/03 10:56:14;;;;;;;10.55;1.90;;;;;;;14.68;70.80;98338.47;5009667;28;20073;-45
2023/11/03 10:58:41;;;;;;;15.25;2.10;;;;;;;14.92;69.87;98342.63;5010178;28;20038;-44
2023/11/03 11:01:29;;;;;;;12.23;2.25;;;;;;;14.39;71.25;98347.59;5009738;28;20037;-50
2023/11/03 11:04:05;;;;;;;10.18;1.67;;;;;;;14.72;71.04;98347.88;5009996;28;20133;-45
2023/11/03 11:06:39;;;;;;;13.20;2.15;;;;;;;14.94;70.48;98355.69;5009680;28;20037;-47
2023/11/03 11:09:09;;;;;;;9.82;1.67;;;;;;;15.07;70.25;98356.81;5009675;28;20037;-44
2023/11/03 11:11:37;;;;;;;14.88;2.00;;;;;;;14.98;69.43;98355.47;5010264;28;20044;-45
2023/11/03 11:14:22;;;;;;;13.75;1.95;;;;;;;14.89;68.74;98357.63;5009595;28;20034;-43
2023/11/03 11:16:55;;;;;;;10.23;1.90;;;;;;;15.21;67.75;98361.47;5010053;28;20045;-45
2023/11/03 11:19:36;;;;;;;9.15;1.85;;;;;;;15.05;68.58;98369.19;5009625;28;20037;-43
2023/11/03 11:22:02;;;;;;;10.23;1.70;;;;;;;15.50;68.19;98368.84;5009852;28;20041;-43
2023/11/03 11:24:29;;;;;;;10.27;1.83;;;;;;;15.62;66.83;98368.31;5010116;28;20403;-46
2023/11/03 11:27:23;;;;;;;10.77;2.30;;;;;;;15.20;66.91;98376.34;5008353;28;20030;-44